This is the latest recevied weather packets stored in our database for station/object KI5BDI. If no packets are shown the sender has not sent any weather packets the latest 10 day(s).
| Time | Temp. | Humidity | Pressure | Rain* | Wind** | Luminosity | Snow |
|---|---|---|---|---|---|---|---|
| 1777725920 | 10° C | 100% | 1019.8 hPa | 0 mm | - | 163 W/m² | - |
| 1777725332 | 8.89° C | 99% | 1019.7 hPa | 0 mm | - | 128 W/m² | - |
| 1777715718 | 7.78° C | 97% | 1018.1 hPa | 0 mm | - | 0 W/m² | - |
| 1777710920 | 9.44° C | 97% | 1017.7 hPa | 0 mm | - | 0 W/m² | - |
| 1777709720 | 9.44° C | 97% | 1017.7 hPa | 0 mm | - | 0 W/m² | - |
| 1777709120 | 10° C | 97% | 1017.7 hPa | 0 mm | - | 0 W/m² | - |
| 1777707321 | 10° C | 97% | 1017.8 hPa | 0 mm | - | 0 W/m² | - |
| 1777705521 | 10.56° C | 97% | 1017.9 hPa | 0 mm | - | 0 W/m² | - |
| 1777704921 | 10.56° C | 97% | 1017.9 hPa | 0 mm | - | 0 W/m² | - |
| 1777703142 | 10.56° C | 96% | 1018 hPa | 0 mm | - | 0 W/m² | - |
| 1777700724 | 11.11° C | 96% | 1018 hPa | 0 mm | - | 0 W/m² | - |
| 1777694724 | 12.22° C | 95% | 1017.7 hPa | 0 mm | - | 0 W/m² | - |
| 1777694124 | 12.22° C | 94% | 1017.8 hPa | 0 mm | - | 0 W/m² | - |
| 1777686926 | 13.33° C | 90% | 1016.8 hPa | 0 mm | - | 0 W/m² | - |
| 1777686326 | 13.33° C | 90% | 1016.6 hPa | 0 mm | - | 0 W/m² | - |
| 1777680328 | 14.44° C | 81% | 1015.2 hPa | 0 mm | - | 43 W/m² | - |
| 1777679118 | 14.44° C | 81% | 1015.1 hPa | 0 mm | - | 35 W/m² | - |
| 1777676719 | 14.44° C | 80% | 1014.6 hPa | 0 mm | - | 128 W/m² | - |
| 1777664719 | 16.67° C | 66% | 1014 hPa | 0 mm | - | 294 W/m² | - |
| 1777662320 | 16.11° C | 70% | 1013.8 hPa | 0 mm | - | 1104 W/m² | - |
| 1777659919 | 15° C | 77% | 1015 hPa | 0 mm | - | 700 W/m² | - |
| 1777658118 | 13.33° C | 85% | 1015.7 hPa | 0 mm | - | 484 W/m² | - |
| 1777655120 | 12.78° C | 92% | 1016.2 hPa | 0 mm | - | 313 W/m² | - |
| 1777653922 | 12.22° C | 92% | 1016.8 hPa | 0 mm | - | 174 W/m² | - |
| 1777647925 | 12.78° C | 90% | 1016.7 hPa | 0.25 mm | - | 93 W/m² | - |
* Rain latest hour (hover to see other rain measurements)
** Current wind speed in m/s (hover to see current wind gust speed)